createdAt,value
2022-09-12T00:01:16.244Z,29.00
2022-09-12T00:03:45.285Z,25.87
2022-09-12T00:06:21.819Z,25.20
2022-09-12T00:08:50.808Z,26.27
2022-09-12T00:11:18.598Z,29.60
2022-09-12T00:13:46.337Z,28.50
2022-09-12T00:16:18.280Z,28.07
2022-09-12T00:18:48.170Z,26.77
2022-09-12T00:21:16.962Z,29.60
2022-09-12T00:23:45.027Z,24.90
2022-09-12T00:26:13.524Z,28.03
2022-09-12T00:28:42.514Z,24.87
2022-09-12T00:31:12.682Z,27.60
2022-09-12T00:33:40.782Z,28.33
2022-09-12T00:36:12.145Z,27.17
2022-09-12T00:38:42.042Z,28.00
2022-09-12T00:41:16.219Z,26.80
2022-09-12T00:43:45.673Z,26.93
2022-09-12T00:46:22.003Z,24.83
2022-09-12T00:48:53.451Z,24.00
2022-09-12T00:51:22.912Z,24.07
2022-09-12T00:53:53.798Z,26.90
2022-09-12T00:56:24.420Z,25.10
2022-09-12T00:58:56.854Z,27.03
2022-09-12T01:01:27.365Z,26.50
2022-09-12T01:03:58.183Z,25.20
2022-09-12T01:06:31.020Z,28.07
2022-09-12T01:08:59.337Z,24.70
2022-09-12T01:11:27.772Z,23.63
2022-09-12T01:13:55.764Z,27.80
2022-09-12T01:16:23.477Z,24.90
2022-09-12T01:19:03.455Z,21.97
2022-09-12T01:21:44.709Z,23.40
2022-09-12T01:24:37.527Z,23.03
2022-09-12T01:27:49.717Z,22.17
2022-09-12T01:30:36.172Z,25.60
2022-09-12T01:33:26.134Z,20.40
2022-09-12T01:36:08.687Z,22.47
2022-09-12T01:38:40.269Z,20.93
2022-09-12T01:41:15.241Z,22.57
2022-09-12T01:43:48.249Z,20.17
2022-09-12T01:46:20.330Z,20.00
2022-09-12T01:48:53.106Z,22.37
2022-09-12T01:51:27.207Z,20.17
2022-09-12T01:54:00.792Z,23.97
2022-09-12T01:56:32.686Z,19.97
2022-09-12T01:59:05.436Z,23.80
2022-09-12T02:01:39.154Z,20.63
2022-09-12T02:04:11.181Z,22.47
2022-09-12T02:06:47.346Z,19.97
2022-09-12T02:09:20.751Z,19.97
2022-09-12T02:11:51.796Z,22.20
2022-09-12T02:14:25.476Z,22.33
2022-09-12T02:17:01.353Z,19.93
2022-09-12T02:19:32.391Z,20.03
2022-09-12T02:22:03.311Z,19.30
2022-09-12T02:24:34.330Z,25.40
2022-09-12T02:27:07.098Z,19.57
2022-09-12T02:29:34.913Z,17.93
2022-09-12T02:32:08.019Z,19.20
2022-09-12T02:34:46.220Z,19.40
2022-09-12T02:37:25.630Z,18.17
2022-09-12T02:39:55.154Z,17.40
2022-09-12T02:42:23.445Z,19.83
2022-09-12T02:44:52.439Z,18.30
2022-09-12T02:47:29.154Z,19.67
2022-09-12T02:49:57.788Z,18.40
2022-09-12T02:52:26.548Z,19.20
2022-09-12T02:54:55.679Z,15.87
2022-09-12T02:57:23.432Z,22.53
2022-09-12T02:59:53.827Z,21.20
2022-09-12T03:02:30.187Z,21.63
2022-09-12T03:05:08.366Z,18.60
2022-09-12T03:07:53.157Z,17.47
2022-09-12T03:10:26.711Z,18.40
2022-09-12T03:13:06.284Z,18.63
2022-09-12T03:15:45.445Z,18.67
2022-09-12T03:18:33.180Z,18.07
2022-09-12T03:21:05.613Z,21.00
2022-09-12T03:23:39.713Z,18.20
2022-09-12T03:26:13.710Z,17.27
2022-09-12T03:28:43.227Z,15.17
2022-09-12T03:31:15.464Z,15.90
2022-09-12T03:33:45.001Z,17.43
2022-09-12T03:36:17.890Z,18.60
2022-09-12T03:38:45.669Z,17.57
2022-09-12T03:41:13.372Z,16.80
2022-09-12T03:43:40.972Z,17.47
2022-09-12T03:46:08.996Z,17.43
2022-09-12T03:48:37.020Z,17.10
2022-09-12T03:51:08.047Z,17.57
2022-09-12T03:53:36.059Z,18.03
2022-09-12T03:56:08.021Z,17.30
2022-09-12T03:58:36.487Z,15.80
2022-09-12T04:01:12.076Z,15.53
2022-09-12T04:03:40.830Z,15.20
2022-09-12T04:06:12.014Z,18.23
2022-09-12T04:08:39.828Z,14.90
2022-09-12T04:11:08.720Z,15.87
2022-09-12T04:13:36.863Z,15.20
2022-09-12T04:16:05.723Z,15.90
2022-09-12T04:18:33.987Z,15.47
2022-09-12T04:21:05.145Z,15.40
2022-09-12T04:23:34.498Z,16.70
2022-09-12T04:26:03.644Z,15.40
2022-09-12T04:28:32.494Z,15.03
2022-09-12T04:31:02.924Z,14.20
2022-09-12T04:33:30.598Z,16.73
2022-09-12T04:35:58.300Z,15.93
2022-09-12T04:38:26.619Z,15.20
2022-09-12T04:40:55.704Z,15.93
2022-09-12T04:43:23.418Z,14.73
2022-09-12T04:45:51.176Z,15.00
2022-09-12T04:48:18.798Z,17.17
2022-09-12T04:50:46.459Z,16.67
2022-09-12T04:53:14.075Z,14.90
2022-09-12T04:55:41.872Z,15.10
2022-09-12T04:58:10.876Z,15.83
2022-09-12T05:00:38.501Z,17.60
2022-09-12T05:03:06.174Z,19.17
2022-09-12T05:05:33.820Z,15.67
2022-09-12T05:08:01.529Z,15.87
2022-09-12T05:10:29.610Z,16.13
2022-09-12T05:12:57.360Z,15.30
2022-09-12T05:15:26.362Z,17.27
2022-09-12T05:17:54.067Z,16.47
2022-09-12T05:20:21.679Z,14.90
2022-09-12T05:22:49.396Z,16.03
2022-09-12T05:25:17.330Z,15.50
2022-09-12T05:27:48.632Z,15.17
2022-09-12T05:30:18.313Z,14.80
2022-09-12T05:32:47.346Z,14.73
2022-09-12T05:35:15.067Z,13.43
2022-09-12T05:37:44.092Z,14.77
2022-09-12T05:40:13.659Z,14.63
2022-09-12T05:42:41.525Z,12.90
2022-09-12T05:45:09.842Z,12.07
2022-09-12T05:47:37.574Z,12.43
2022-09-12T05:50:10.948Z,12.67
2022-09-12T05:52:38.821Z,11.10
2022-09-12T05:55:07.390Z,10.80
2022-09-12T05:57:35.776Z,10.93
2022-09-12T06:00:05.246Z,10.43
2022-09-12T06:02:39.803Z,8.80
2022-09-12T06:05:09.714Z,9.73
2022-09-12T06:07:37.509Z,9.40
2022-09-12T06:10:05.601Z,9.23
2022-09-12T06:12:33.240Z,9.50
2022-09-12T06:15:01.093Z,8.30
2022-09-12T06:17:28.786Z,9.10
2022-09-12T06:19:56.898Z,8.20
2022-09-12T06:22:26.037Z,8.13
2022-09-12T06:24:57.774Z,8.40
2022-09-12T06:27:25.885Z,8.77
2022-09-12T06:29:53.751Z,9.27
2022-09-12T06:32:21.466Z,7.40
2022-09-12T06:34:49.295Z,7.27
2022-09-12T06:37:17.109Z,7.97
2022-09-12T06:39:46.967Z,7.70
2022-09-12T06:42:15.365Z,7.23
2022-09-12T06:44:52.006Z,6.90
2022-09-12T06:47:21.058Z,8.07
2022-09-12T06:49:48.965Z,7.70
2022-09-12T06:52:16.670Z,7.23
2022-09-12T06:54:46.607Z,7.00
2022-09-12T06:57:14.715Z,8.23
2022-09-12T06:59:42.400Z,7.10
2022-09-12T07:02:10.385Z,8.60
2022-09-12T07:04:38.107Z,6.87
2022-09-12T07:07:05.934Z,8.80
2022-09-12T07:09:33.974Z,6.90
2022-09-12T07:12:04.370Z,7.20
2022-09-12T07:14:32.031Z,7.37
2022-09-12T07:16:59.702Z,7.90
2022-09-12T07:19:27.469Z,7.27
2022-09-12T07:21:58.492Z,8.07
2022-09-12T07:24:26.643Z,9.03
2022-09-12T07:26:54.721Z,7.60
2022-09-12T07:29:39.289Z,7.77
2022-09-12T07:32:07.657Z,7.77
2022-09-12T07:34:36.735Z,7.63
2022-09-12T07:37:04.630Z,7.93
2022-09-12T07:39:32.545Z,8.00
2022-09-12T07:42:00.901Z,8.03
2022-09-12T07:44:30.167Z,8.00
2022-09-12T07:46:57.913Z,8.67
2022-09-12T07:49:25.813Z,8.73
2022-09-12T07:51:53.841Z,8.60
2022-09-12T07:54:21.712Z,8.50
2022-09-12T07:56:49.529Z,8.63
2022-09-12T07:59:35.329Z,8.97
2022-09-12T08:02:06.675Z,8.90
2022-09-12T08:04:36.370Z,9.27
2022-09-12T08:07:04.180Z,9.83
2022-09-12T08:09:31.848Z,8.80
2022-09-12T08:11:59.566Z,9.80
2022-09-12T08:14:27.536Z,9.97
2022-09-12T08:16:55.415Z,10.13
2022-09-12T08:19:25.290Z,9.57
2022-09-12T08:21:52.994Z,9.20
2022-09-12T08:24:20.716Z,9.80
2022-09-12T08:26:48.312Z,8.37
2022-09-12T08:29:16.246Z,8.60
2022-09-12T08:31:44.035Z,8.87
2022-09-12T08:34:11.705Z,9.27
2022-09-12T08:36:41.174Z,9.70
2022-09-12T08:39:08.983Z,7.90
2022-09-12T08:41:39.566Z,9.90
2022-09-12T08:44:45.926Z,8.50
2022-09-12T08:47:23.845Z,8.80
2022-09-12T08:50:11.641Z,7.73
2022-09-12T08:52:48.176Z,8.23
2022-09-12T08:55:31.423Z,9.00
2022-09-12T08:58:00.752Z,7.70
2022-09-12T09:00:37.962Z,8.37
2022-09-12T09:03:33.798Z,6.90
2022-09-12T09:06:08.215Z,7.57
2022-09-12T09:08:47.909Z,7.00
2022-09-12T09:11:33.116Z,5.83
2022-09-12T09:14:32.856Z,6.30
2022-09-12T09:17:01.649Z,5.17
2022-09-12T09:19:33.576Z,5.77
2022-09-12T09:22:06.320Z,5.97
2022-09-12T09:24:41.156Z,6.17
2022-09-12T09:27:39.476Z,6.00
2022-09-12T09:30:05.407Z,4.83
2022-09-12T09:32:37.758Z,5.70
2022-09-12T09:35:16.495Z,5.27
2022-09-12T09:37:55.562Z,4.77
2022-09-12T09:40:36.342Z,5.33
2022-09-12T09:43:10.903Z,4.80
2022-09-12T09:45:39.225Z,4.60
2022-09-12T09:48:17.390Z,4.40
2022-09-12T09:50:49.226Z,3.90
2022-09-12T09:53:36.031Z,3.80
2022-09-12T09:56:11.207Z,4.20
2022-09-12T09:58:41.364Z,3.43
2022-09-12T10:01:16.655Z,4.27
2022-09-12T10:03:50.518Z,3.50
2022-09-12T10:06:27.507Z,3.40
2022-09-12T10:09:08.281Z,3.50
2022-09-12T10:11:42.511Z,2.50
2022-09-12T10:14:30.170Z,2.93
2022-09-12T10:16:59.591Z,2.63
2022-09-12T10:19:36.064Z,2.53
2022-09-12T10:22:05.455Z,3.10
2022-09-12T10:24:36.603Z,3.40
2022-09-12T10:27:15.591Z,2.90
2022-09-12T10:29:48.432Z,3.27
2022-09-12T10:32:30.491Z,4.00
2022-09-12T10:35:01.569Z,3.00
2022-09-12T10:37:33.388Z,3.00
2022-09-12T10:40:03.677Z,3.50
2022-09-12T10:42:48.176Z,3.50
2022-09-12T10:45:22.112Z,3.10
2022-09-12T10:47:50.404Z,3.77
2022-09-12T10:50:26.315Z,3.40
2022-09-12T10:52:54.566Z,2.83
2022-09-12T10:55:29.539Z,3.50
2022-09-12T10:58:28.466Z,3.27
2022-09-12T11:01:03.406Z,3.47
2022-09-12T11:03:47.422Z,2.93
2022-09-12T11:06:21.347Z,2.90
2022-09-12T11:09:00.802Z,3.00
2022-09-12T11:11:43.869Z,2.73
2022-09-12T11:14:24.755Z,3.30
2022-09-12T11:17:00.228Z,3.03
2022-09-12T11:19:50.944Z,2.80
2022-09-12T11:22:35.440Z,2.00
2022-09-12T11:25:29.842Z,2.50
2022-09-12T11:28:17.971Z,2.47
2022-09-12T11:31:04.089Z,2.30
2022-09-12T11:33:43.177Z,2.33
2022-09-12T11:36:22.297Z,2.70
2022-09-12T11:39:03.212Z,2.30
2022-09-12T11:41:35.691Z,2.70
2022-09-12T11:44:14.018Z,2.50
2022-09-12T11:46:47.621Z,2.03
2022-09-12T11:49:22.058Z,2.37
2022-09-12T11:51:54.871Z,2.83
2022-09-12T11:54:29.017Z,2.40
2022-09-12T11:57:05.089Z,2.60
2022-09-12T11:59:41.322Z,2.50
2022-09-12T12:02:19.894Z,2.97
2022-09-12T12:05:00.524Z,2.50
2022-09-12T12:07:42.218Z,2.73
2022-09-12T12:10:26.210Z,2.53
2022-09-12T12:12:56.168Z,3.20
2022-09-12T12:15:26.788Z,2.60
2022-09-12T12:18:05.881Z,3.07
2022-09-12T12:20:33.914Z,2.93
2022-09-12T12:23:02.240Z,2.70
2022-09-12T12:25:53.928Z,2.80
2022-09-12T12:29:00.185Z,3.03
2022-09-12T12:31:28.258Z,2.67
2022-09-12T12:34:04.127Z,3.00
2022-09-12T12:36:40.954Z,2.80
2022-09-12T12:39:55.564Z,2.03
2022-09-12T12:43:03.509Z,2.20
2022-09-12T12:46:12.839Z,3.00
2022-09-12T12:49:05.951Z,2.47
2022-09-12T12:51:49.900Z,2.70
2022-09-12T12:54:53.087Z,2.70
2022-09-12T12:57:27.992Z,2.87
2022-09-12T12:59:59.025Z,2.80
2022-09-12T13:02:32.083Z,3.13
2022-09-12T13:05:03.866Z,2.30
2022-09-12T13:07:36.870Z,2.77
2022-09-12T13:10:06.845Z,2.57
2022-09-12T13:12:37.477Z,2.33
2022-09-12T13:15:44.209Z,2.60
2022-09-12T13:18:14.506Z,2.40
2022-09-12T13:20:51.442Z,2.60
2022-09-12T13:23:23.980Z,2.60
2022-09-12T13:25:56.539Z,2.60
2022-09-12T13:28:24.752Z,2.23
2022-09-12T13:31:00.393Z,2.57
2022-09-12T13:33:35.880Z,2.27
2022-09-12T13:36:30.945Z,2.30
2022-09-12T13:39:10.609Z,2.10
2022-09-12T13:41:53.643Z,2.43
2022-09-12T13:44:23.528Z,2.80
2022-09-12T13:46:52.964Z,2.60
2022-09-12T13:49:24.057Z,2.20
2022-09-12T13:52:01.914Z,2.70
2022-09-12T13:54:31.304Z,2.40
2022-09-12T13:56:59.678Z,2.70
2022-09-12T13:59:27.857Z,2.70
2022-09-12T14:01:56.505Z,2.90
2022-09-12T14:04:44.300Z,3.20
2022-09-12T14:07:17.112Z,2.57
2022-09-12T14:09:47.054Z,2.73
2022-09-12T14:12:22.072Z,3.10
2022-09-12T14:14:52.569Z,2.83
2022-09-12T14:17:27.446Z,2.20
2022-09-12T14:19:59.268Z,3.03
2022-09-12T14:22:29.788Z,2.23
2022-09-12T14:24:59.508Z,2.80
2022-09-12T14:27:30.157Z,2.43
2022-09-12T14:30:02.959Z,2.80
2022-09-12T14:32:31.003Z,2.73
2022-09-12T14:35:19.197Z,2.63
2022-09-12T14:37:51.467Z,3.63
2022-09-12T14:40:21.860Z,2.57
2022-09-12T14:42:51.800Z,3.47
2022-09-12T14:45:26.152Z,2.67
2022-09-12T14:47:54.749Z,2.60
2022-09-12T14:50:26.131Z,2.97
2022-09-12T14:53:06.397Z,2.50
2022-09-12T14:55:36.224Z,2.73
2022-09-12T14:58:17.010Z,2.60
2022-09-12T15:01:01.849Z,3.13
2022-09-12T15:03:32.661Z,2.87
2022-09-12T15:06:03.353Z,3.17
2022-09-12T15:08:33.263Z,2.50
2022-09-12T15:11:01.437Z,2.40
2022-09-12T15:13:30.769Z,2.80
2022-09-12T15:16:00.150Z,2.70
2022-09-12T15:18:29.445Z,2.70
2022-09-12T15:20:59.163Z,2.77
2022-09-12T15:23:40.096Z,2.83
2022-09-12T15:26:08.495Z,2.40
2022-09-12T15:28:36.167Z,2.43
2022-09-12T15:31:08.499Z,2.50
2022-09-12T15:33:36.386Z,2.17
2022-09-12T15:36:04.112Z,2.00
2022-09-12T15:38:31.845Z,2.10
2022-09-12T15:41:00.883Z,1.87
2022-09-12T15:43:28.531Z,2.20
2022-09-12T15:45:56.361Z,1.93
2022-09-12T15:48:24.528Z,2.33
2022-09-12T15:50:52.156Z,2.10
2022-09-12T15:53:19.947Z,2.27
2022-09-12T15:55:47.679Z,2.10
2022-09-12T15:58:16.710Z,2.33
2022-09-12T16:00:44.411Z,2.60
2022-09-12T16:03:21.800Z,2.13
2022-09-12T16:05:49.653Z,2.60
2022-09-12T16:08:17.434Z,2.50
2022-09-12T16:10:45.440Z,2.60
2022-09-12T16:13:13.290Z,3.10
2022-09-12T16:15:42.462Z,2.13
2022-09-12T16:18:10.238Z,2.80
2022-09-12T16:20:40.720Z,2.87
2022-09-12T16:23:08.635Z,2.67
2022-09-12T16:25:37.515Z,2.70
2022-09-12T16:28:06.469Z,2.60
2022-09-12T16:30:34.386Z,2.80
2022-09-12T16:33:03.830Z,2.40
2022-09-12T16:35:32.622Z,2.70
2022-09-12T16:38:00.435Z,2.80
2022-09-12T16:40:28.079Z,2.70
2022-09-12T16:42:55.897Z,2.20
2022-09-12T16:45:23.632Z,2.77
2022-09-12T16:47:51.276Z,2.80
2022-09-12T16:50:20.331Z,3.20
2022-09-12T16:52:48.092Z,3.43
2022-09-12T16:55:15.710Z,3.23
2022-09-12T16:57:43.327Z,3.07
2022-09-12T17:00:12.128Z,2.60
2022-09-12T17:02:39.832Z,2.70
2022-09-12T17:05:08.211Z,3.60
2022-09-12T17:07:37.287Z,2.83
2022-09-12T17:10:05.676Z,3.00
2022-09-12T17:12:33.431Z,2.60
2022-09-12T17:15:01.197Z,3.30
2022-09-12T17:17:28.874Z,2.97
2022-09-12T17:19:56.569Z,3.30
2022-09-12T17:22:24.185Z,2.80
2022-09-12T17:24:53.264Z,2.47
2022-09-12T17:27:21.069Z,2.77
2022-09-12T17:29:48.940Z,3.10
2022-09-12T17:32:17.715Z,2.83
2022-09-12T17:34:45.645Z,2.67
2022-09-12T17:37:13.492Z,2.97
2022-09-12T17:39:41.360Z,2.60
2022-09-12T17:42:10.440Z,2.87
2022-09-12T17:44:38.188Z,2.80
2022-09-12T17:47:06.107Z,3.20
2022-09-12T17:49:34.314Z,3.40
2022-09-12T17:52:02.249Z,3.10
2022-09-12T17:54:29.970Z,2.80
2022-09-12T17:56:57.581Z,3.50
2022-09-12T17:59:26.669Z,3.50
2022-09-12T18:02:11.830Z,3.20
2022-09-12T18:04:40.546Z,3.13
2022-09-12T18:07:08.492Z,3.50
2022-09-12T18:09:37.280Z,3.80
2022-09-12T18:12:06.272Z,4.00
2022-09-12T18:14:35.745Z,4.07
2022-09-12T18:17:03.386Z,3.70
2022-09-12T18:19:31.885Z,3.93
2022-09-12T18:21:59.642Z,3.60
2022-09-12T18:24:27.391Z,3.80
2022-09-12T18:26:56.560Z,4.30
2022-09-12T18:29:24.767Z,4.40
2022-09-12T18:31:53.748Z,4.40
2022-09-12T18:34:21.510Z,4.47
2022-09-12T18:36:51.234Z,4.27
2022-09-12T18:39:20.523Z,5.33
2022-09-12T18:41:49.816Z,4.40
2022-09-12T18:44:17.568Z,4.67
2022-09-12T18:46:45.591Z,3.80
2022-09-12T18:49:14.773Z,4.83
2022-09-12T18:51:42.428Z,5.27
2022-09-12T18:54:14.164Z,4.53
2022-09-12T18:56:43.960Z,4.97
2022-09-12T18:59:12.827Z,4.70
2022-09-12T19:01:40.974Z,4.93
2022-09-12T19:04:10.333Z,5.40
2022-09-12T19:06:41.903Z,5.40
2022-09-12T19:09:10.664Z,4.60
2022-09-12T19:11:40.382Z,4.77
2022-09-12T19:14:09.106Z,4.90
2022-09-12T19:16:36.914Z,4.13
2022-09-12T19:19:06.058Z,4.47
2022-09-12T19:21:35.174Z,4.30
2022-09-12T19:24:07.217Z,4.57
2022-09-12T19:26:35.690Z,4.20
2022-09-12T19:29:03.430Z,4.77
2022-09-12T19:31:32.215Z,5.23
2022-09-12T19:34:01.719Z,5.27
2022-09-12T19:36:47.077Z,4.50
2022-09-12T19:39:17.375Z,4.60
2022-09-12T19:41:45.398Z,4.40
2022-09-12T19:44:13.314Z,5.10
2022-09-12T19:46:41.639Z,4.60
2022-09-12T19:49:12.127Z,4.03
2022-09-12T19:51:40.042Z,4.47
2022-09-12T19:54:07.794Z,4.83
2022-09-12T19:56:36.841Z,4.30
2022-09-12T19:59:04.527Z,5.20
2022-09-12T20:01:33.085Z,4.80
2022-09-12T20:04:00.774Z,5.00
2022-09-12T20:06:28.678Z,5.27
2022-09-12T20:08:56.868Z,5.20
2022-09-12T20:11:25.702Z,4.87
2022-09-12T20:13:54.732Z,5.10
2022-09-12T20:16:24.470Z,5.60
2022-09-12T20:18:56.966Z,4.97
2022-09-12T20:21:31.192Z,4.83
2022-09-12T20:24:02.210Z,5.27
2022-09-12T20:26:30.266Z,4.47
2022-09-12T20:28:59.869Z,4.37
2022-09-12T20:31:27.794Z,4.80
2022-09-12T20:33:55.963Z,5.40
2022-09-12T20:36:24.009Z,4.60
2022-09-12T20:38:53.431Z,4.13
2022-09-12T20:41:21.881Z,4.10
2022-09-12T20:43:51.036Z,4.23
2022-09-12T20:46:22.164Z,4.07
2022-09-12T20:48:50.670Z,4.87
2022-09-12T20:51:19.094Z,4.80
2022-09-12T20:53:46.959Z,5.50
2022-09-12T20:56:15.023Z,3.93
2022-09-12T20:58:44.506Z,3.47
2022-09-12T21:01:15.933Z,4.97
2022-09-12T21:03:46.164Z,4.20
2022-09-12T21:06:16.837Z,3.70
2022-09-12T21:08:44.938Z,3.67
2022-09-12T21:11:12.760Z,3.50
2022-09-12T21:13:40.867Z,3.63
2022-09-12T21:16:11.481Z,3.67
2022-09-12T21:18:40.981Z,3.70
2022-09-12T21:21:11.479Z,3.30
2022-09-12T21:23:39.431Z,3.20
2022-09-12T21:26:07.884Z,3.70
2022-09-12T21:28:35.778Z,3.10
2022-09-12T21:31:03.467Z,3.23
2022-09-12T21:33:31.124Z,3.40
2022-09-12T21:36:03.393Z,2.90
2022-09-12T21:38:32.504Z,3.27
2022-09-12T21:41:05.622Z,3.37
2022-09-12T21:43:33.238Z,3.50
2022-09-12T21:46:00.988Z,3.03
2022-09-12T21:48:29.283Z,3.10
2022-09-12T21:50:56.960Z,2.77
2022-09-12T21:53:24.706Z,3.13
2022-09-12T21:55:53.735Z,3.00
2022-09-12T21:58:21.344Z,3.10
2022-09-12T22:00:49.209Z,3.03
2022-09-12T22:03:18.765Z,2.90
2022-09-12T22:05:46.489Z,3.30
2022-09-12T22:08:14.066Z,3.30
2022-09-12T22:10:42.793Z,3.40
2022-09-12T22:13:11.850Z,3.07
2022-09-12T22:15:41.037Z,3.20
2022-09-12T22:18:09.121Z,3.03
2022-09-12T22:20:36.793Z,3.67
2022-09-12T22:23:24.830Z,3.60
2022-09-12T22:25:55.150Z,3.60
2022-09-12T22:28:25.043Z,3.53
2022-09-12T22:30:54.205Z,3.60
2022-09-12T22:33:22.093Z,3.03
2022-09-12T22:35:49.684Z,3.33
2022-09-12T22:38:17.304Z,3.63
2022-09-12T22:40:44.911Z,3.47
2022-09-12T22:43:12.923Z,4.50
2022-09-12T22:45:43.066Z,3.07
2022-09-12T22:48:10.686Z,3.13
2022-09-12T22:50:38.378Z,3.23
2022-09-12T22:53:06.029Z,3.60
2022-09-12T22:55:33.630Z,3.60
2022-09-12T22:58:01.285Z,2.80
2022-09-12T23:00:29.629Z,3.40
2022-09-12T23:02:59.103Z,3.27
2022-09-12T23:05:26.777Z,3.30
2022-09-12T23:07:55.207Z,3.10
2022-09-12T23:10:23.257Z,3.23
2022-09-12T23:12:50.854Z,3.67
2022-09-12T23:15:18.485Z,3.20
2022-09-12T23:17:46.095Z,3.80
2022-09-12T23:20:15.178Z,3.50
2022-09-12T23:22:42.805Z,3.13
2022-09-12T23:25:10.799Z,3.40
2022-09-12T23:27:39.985Z,3.33
2022-09-12T23:30:09.323Z,3.30
2022-09-12T23:32:37.527Z,3.30
2022-09-12T23:35:05.614Z,3.40
2022-09-12T23:37:34.568Z,3.33
2022-09-12T23:40:02.534Z,3.80
2022-09-12T23:42:30.198Z,2.97
2022-09-12T23:44:57.821Z,2.90
2022-09-12T23:47:25.464Z,3.10
2022-09-12T23:49:53.036Z,3.23
2022-09-12T23:52:20.665Z,2.73
2022-09-12T23:54:49.599Z,2.50
2022-09-12T23:57:17.244Z,3.30
2022-09-12T23:59:47.599Z,4.10
